Time;durP1;ratioP1;P1;durP2;ratioP2;P2;SDS_P1;SDS_P2;PMS_P1;PMS_P2;Temp;Humidity;BMP_temperature;BMP_pressure;BME280_temperature;BME280_humidity;BME280_pressure;Samples;Min_cycle;Max_cycle;Signal;HPM_P1;HPM_P2
2020/12/31 00:01:48;;;;;;;1.62;0.70;;;14.20;99.90;;;;;;4111070;34;20422;-89
2020/12/31 00:04:16;;;;;;;2.35;0.60;;;14.20;99.90;;;;;;4115094;34;20061;-89
2020/12/31 00:06:44;;;;;;;2.50;0.65;;;14.20;99.90;;;;;;4104466;34;20127;-89
2020/12/31 00:09:12;;;;;;;3.50;1.17;;;14.10;99.90;;;;;;4108322;34;20506;-89
2020/12/31 00:11:40;;;;;;;2.37;1.10;;;14.10;99.90;;;;;;4108813;34;20049;-89
2020/12/31 00:14:08;;;;;;;1.77;0.70;;;14.00;99.90;;;;;;4103290;34;20528;-88
2020/12/31 00:16:37;;;;;;;3.30;1.00;;;14.00;99.90;;;;;;4124158;34;20125;-88
2020/12/31 00:19:05;;;;;;;1.67;0.90;;;13.90;99.90;;;;;;4104714;34;20069;-88
2020/12/31 00:21:33;;;;;;;3.65;1.33;;;13.80;99.90;;;;;;4105770;34;20074;-90
2020/12/31 00:24:01;;;;;;;2.33;0.70;;;13.70;99.90;;;;;;4115883;34;20092;-89
2020/12/31 00:26:29;;;;;;;4.15;0.80;;;13.60;99.90;;;;;;4121076;34;20761;-88
2020/12/31 00:28:57;;;;;;;2.87;0.60;;;13.50;99.90;;;;;;4117984;34;20465;-88
2020/12/31 00:31:25;;;;;;;2.67;0.85;;;13.40;99.90;;;;;;4105854;34;20049;-88
2020/12/31 00:33:53;;;;;;;3.20;0.75;;;13.40;99.90;;;;;;4116669;34;20481;-88
2020/12/31 00:36:21;;;;;;;2.25;0.85;;;13.30;99.90;;;;;;4108109;34;20084;-89
2020/12/31 00:38:51;;;;;;;2.10;1.00;;;13.20;99.90;;;;;;4111433;34;20688;-89
2020/12/31 00:41:21;;;;;;;1.27;0.70;;;13.20;99.90;;;;;;4109599;34;20327;-89
2020/12/31 00:43:49;;;;;;;1.35;0.73;;;13.10;99.90;;;;;;4119658;34;20641;-88
2020/12/31 00:46:18;;;;;;;2.92;0.70;;;13.10;99.90;;;;;;4122791;34;20080;-89
2020/12/31 00:48:46;;;;;;;0.95;0.70;;;13.00;99.90;;;;;;4111252;34;20080;-88
2020/12/31 00:51:14;;;;;;;3.10;0.93;;;13.00;99.90;;;;;;4108909;34;20069;-88
2020/12/31 00:53:41;;;;;;;1.75;0.82;;;13.00;99.90;;;;;;4108786;34;20065;-90
2020/12/31 00:56:12;;;;;;;1.30;0.80;;;13.00;99.90;;;;;;4108246;34;20502;-90
2020/12/31 00:58:39;;;;;;;1.23;0.75;;;13.00;99.90;;;;;;4116397;34;20061;-89
2020/12/31 01:01:08;;;;;;;0.77;0.77;;;13.10;99.90;;;;;;4110083;34;20061;-88
2020/12/31 01:03:37;;;;;;;2.58;0.70;;;13.10;99.90;;;;;;4111979;34;20053;-89
2020/12/31 01:06:05;;;;;;;2.28;0.80;;;13.20;99.90;;;;;;4117658;34;20068;-88
2020/12/31 01:08:33;;;;;;;0.70;0.70;;;13.20;99.90;;;;;;4116766;34;20439;-88
2020/12/31 01:11:01;;;;;;;2.83;0.85;;;13.30;99.90;;;;;;4112473;34;20085;-89
2020/12/31 01:13:29;;;;;;;4.28;1.08;;;13.30;99.90;;;;;;4111083;34;20119;-88
2020/12/31 01:15:57;;;;;;;3.95;1.10;;;13.30;99.90;;;;;;4111562;34;20080;-87
2020/12/31 01:18:25;;;;;;;1.85;1.15;;;13.30;99.90;;;;;;4106933;34;20109;-89
2020/12/31 01:20:53;;;;;;;2.85;1.10;;;13.40;99.90;;;;;;4114596;34;20348;-89
2020/12/31 01:23:21;;;;;;;1.55;0.73;;;13.50;99.90;;;;;;4112088;34;20115;-89
2020/12/31 01:25:51;;;;;;;3.17;1.30;;;13.60;99.90;;;;;;4111784;34;20232;-87
2020/12/31 01:28:18;;;;;;;1.65;0.90;;;13.60;99.90;;;;;;4106399;34;20543;-88
2020/12/31 01:30:46;;;;;;;2.62;1.52;;;13.70;99.90;;;;;;4122318;34;20062;-89
2020/12/31 01:33:15;;;;;;;2.42;0.88;;;13.70;99.90;;;;;;4125030;34;20441;-90
2020/12/31 01:35:43;;;;;;;1.60;0.77;;;13.70;99.90;;;;;;4115391;34;20561;-88
2020/12/31 01:38:11;;;;;;;2.55;0.93;;;13.70;99.90;;;;;;4105276;34;20105;-91
2020/12/31 01:40:46;;;;;;;2.87;1.33;;;13.70;99.90;;;;;;4106192;34;20123;-89
2020/12/31 01:43:14;;;;;;;2.70;1.20;;;13.80;99.90;;;;;;4110686;34;20514;-90
2020/12/31 01:45:42;;;;;;;5.85;2.00;;;13.90;99.90;;;;;;4110261;34;20073;-89
2020/12/31 01:48:10;;;;;;;2.22;1.15;;;13.90;99.90;;;;;;4120905;34;20127;-89
2020/12/31 01:50:38;;;;;;;3.05;1.12;;;13.90;99.90;;;;;;4118510;34;20190;-88
2020/12/31 01:53:07;;;;;;;2.35;0.93;;;13.80;99.90;;;;;;4126046;34;20084;-89
2020/12/31 01:55:35;;;;;;;5.25;1.33;;;13.80;99.90;;;;;;4114875;34;20049;-89
2020/12/31 01:58:04;;;;;;;2.42;1.00;;;13.80;99.90;;;;;;4121126;34;20057;-89
2020/12/31 02:00:32;;;;;;;3.10;0.93;;;13.80;99.90;;;;;;4116700;34;20108;-89
2020/12/31 02:03:01;;;;;;;1.87;0.98;;;13.80;99.90;;;;;;4111553;34;20065;-90
2020/12/31 02:05:29;;;;;;;8.00;2.40;;;13.80;99.90;;;;;;4112158;34;20143;-89
2020/12/31 02:07:57;;;;;;;5.25;1.37;;;13.80;99.90;;;;;;4109986;34;20076;-89
2020/12/31 02:10:25;;;;;;;6.37;1.77;;;13.80;99.90;;;;;;4116786;34;20143;-89
2020/12/31 02:12:53;;;;;;;10.30;1.85;;;13.80;99.90;;;;;;4122767;34;20234;-88
2020/12/31 02:15:21;;;;;;;2.67;1.33;;;13.80;99.90;;;;;;4106274;34;20100;-89
2020/12/31 02:17:49;;;;;;;5.68;2.10;;;13.80;99.90;;;;;;4104113;34;20174;-89
2020/12/31 02:20:17;;;;;;;7.95;2.20;;;13.80;99.90;;;;;;4106367;34;20080;-88
2020/12/31 02:22:45;;;;;;;14.90;3.75;;;13.80;99.90;;;;;;4104273;34;20172;-89
2020/12/31 02:25:13;;;;;;;9.15;3.00;;;13.80;99.90;;;;;;4114511;34;20069;-89
2020/12/31 02:27:41;;;;;;;12.98;2.85;;;13.90;99.90;;;;;;4117875;34;20120;-88
2020/12/31 02:30:09;;;;;;;9.27;2.80;;;13.90;99.90;;;;;;4098629;34;20112;-88
2020/12/31 02:32:37;;;;;;;5.55;2.10;;;14.00;99.90;;;;;;4107329;34;20516;-89
2020/12/31 02:35:06;;;;;;;12.05;2.40;;;14.00;99.90;;;;;;4119881;34;20065;-88
2020/12/31 02:37:34;;;;;;;6.32;2.05;;;14.00;99.90;;;;;;4107185;34;20108;-88
2020/12/31 02:40:02;;;;;;;4.40;2.15;;;14.10;99.90;;;;;;4118316;34;20097;-88
2020/12/31 02:42:30;;;;;;;3.90;1.83;;;14.10;99.90;;;;;;4105364;34;20117;-89
2020/12/31 02:44:58;;;;;;;8.27;1.83;;;14.10;99.90;;;;;;4107090;34;20065;-87
2020/12/31 02:47:34;;;;;;;10.80;1.80;;;14.10;99.90;;;;;;4105495;34;20061;-88
2020/12/31 02:50:03;;;;;;;6.40;1.67;;;14.00;99.90;;;;;;4106217;34;20084;-88
2020/12/31 02:52:31;;;;;;;6.45;2.28;;;14.00;99.90;;;;;;4112120;34;20160;-88
2020/12/31 02:54:59;;;;;;;2.45;1.80;;;13.90;99.90;;;;;;4121762;34;20184;-87
2020/12/31 02:57:28;;;;;;;9.18;1.83;;;13.90;99.90;;;;;;4106891;34;20061;-88
2020/12/31 02:59:56;;;;;;;4.65;1.70;;;13.80;99.90;;;;;;4107485;34;20065;-88
2020/12/31 03:02:24;;;;;;;5.22;2.00;;;13.70;99.90;;;;;;4125393;34;20053;-89
2020/12/31 03:04:52;;;;;;;6.80;2.45;;;13.70;99.90;;;;;;4117946;34;20109;-89
2020/12/31 03:07:20;;;;;;;4.37;1.40;;;13.70;99.90;;;;;;4104196;34;20076;-89
2020/12/31 03:09:47;;;;;;;5.60;2.10;;;13.70;99.90;;;;;;4108665;34;20584;-86
2020/12/31 03:12:15;;;;;;;2.12;1.35;;;13.60;99.90;;;;;;4627249;28;20532;-91
2020/12/31 03:14:43;;;;;;;5.75;1.73;;;13.60;99.90;;;;;;4165666;34;20083;-89
2020/12/31 03:17:11;;;;;;;11.90;1.98;;;13.60;99.90;;;;;;4162671;34;20107;-89
2020/12/31 03:19:39;;;;;;;10.40;2.08;;;13.60;99.90;;;;;;4163088;34;20203;-85
2020/12/31 03:22:07;;;;;;;2.90;1.23;;;13.60;99.90;;;;;;4345488;28;20765;-87
2020/12/31 03:24:35;;;;;;;3.90;1.42;;;13.60;99.90;;;;;;4133951;28;20507;-90
2020/12/31 03:27:04;;;;;;;5.43;1.92;;;13.60;99.90;;;;;;4124878;34;20064;-87
2020/12/31 03:29:32;;;;;;;11.90;2.67;;;13.60;99.90;;;;;;4121695;34;20748;-88
2020/12/31 03:32:00;;;;;;;5.32;1.58;;;13.70;99.90;;;;;;4124858;34;20085;-90
2020/12/31 03:34:28;;;;;;;3.85;1.30;;;13.80;99.90;;;;;;4121723;34;20187;-87
2020/12/31 03:36:56;;;;;;;7.78;1.83;;;13.80;99.90;;;;;;4123081;34;20106;-87
2020/12/31 03:39:24;;;;;;;6.55;2.10;;;13.90;99.90;;;;;;4126053;34;20041;-85
2020/12/31 03:41:52;;;;;;;5.45;1.62;;;13.90;99.90;;;;;;4111757;34;20077;-88
2020/12/31 03:44:20;;;;;;;11.05;2.08;;;13.90;99.90;;;;;;4121447;34;20480;-90
2020/12/31 03:46:48;;;;;;;11.88;2.03;;;13.90;99.90;;;;;;4120221;34;20072;-86
2020/12/31 03:49:16;;;;;;;5.25;2.25;;;13.90;99.90;;;;;;4122534;34;20509;-85
2020/12/31 03:51:44;;;;;;;8.68;2.12;;;13.90;99.90;;;;;;4122361;34;20033;-88
2020/12/31 03:54:13;;;;;;;6.18;2.00;;;13.90;99.90;;;;;;4132016;34;20615;-90
2020/12/31 03:56:41;;;;;;;10.02;2.33;;;13.80;99.90;;;;;;4131267;34;20119;-92
2020/12/31 03:59:09;;;;;;;4.82;1.65;;;13.80;99.90;;;;;;4124122;34;20049;-91
2020/12/31 04:01:37;;;;;;;6.68;2.12;;;13.80;99.90;;;;;;4134028;34;20107;-88
2020/12/31 04:04:06;;;;;;;3.28;1.60;;;13.80;99.90;;;;;;4124936;34;20177;-86
2020/12/31 04:06:34;;;;;;;6.25;1.10;;;13.80;99.90;;;;;;4116809;34;20045;-88
2020/12/31 04:09:02;;;;;;;6.65;1.60;;;13.80;99.90;;;;;;4123765;34;20112;-87
2020/12/31 04:11:30;;;;;;;5.95;1.77;;;13.80;99.90;;;;;;4130790;34;20085;-90
2020/12/31 04:13:58;;;;;;;3.65;1.48;;;13.90;99.90;;;;;;4123278;34;20057;-90
2020/12/31 04:16:26;;;;;;;1.95;1.27;;;13.80;99.90;;;;;;4117024;34;20149;-92
2020/12/31 04:18:54;;;;;;;6.82;1.35;;;13.90;99.90;;;;;;4136323;34;20099;-89
2020/12/31 04:21:22;;;;;;;8.52;1.77;;;13.90;99.90;;;;;;4133555;34;20088;-88
2020/12/31 04:23:50;;;;;;;9.48;2.22;;;13.90;99.90;;;;;;4123238;34;20141;-86
2020/12/31 04:26:30;;;;;;;7.35;1.70;;;13.90;99.90;;;;;;4127931;34;20064;-89
2020/12/31 04:28:58;;;;;;;6.28;1.50;;;13.80;99.90;;;;;;4136549;34;20234;-89
2020/12/31 04:31:27;;;;;;;4.40;1.42;;;13.70;99.90;;;;;;4118966;34;20109;-91
2020/12/31 04:33:55;;;;;;;10.27;1.67;;;13.80;99.90;;;;;;4131766;34;20117;-91
2020/12/31 04:36:23;;;;;;;2.25;1.48;;;13.80;99.90;;;;;;4115350;34;20131;-88
2020/12/31 04:38:52;;;;;;;9.10;2.05;;;13.90;99.90;;;;;;4113987;34;20123;-88
2020/12/31 04:41:20;;;;;;;4.32;1.10;;;13.80;99.90;;;;;;4127232;34;20061;-92
2020/12/31 04:43:49;;;;;;;7.90;1.62;;;13.90;99.90;;;;;;4117309;34;20092;-90
2020/12/31 04:46:22;;;;;;;6.82;1.37;;;13.90;99.90;;;;;;4116960;34;20087;-90
2020/12/31 04:49:03;;;;;;;6.75;1.45;;;13.90;99.90;;;;;;4126015;34;20057;-88
2020/12/31 04:51:35;;;;;;;5.07;1.50;;;13.80;99.90;;;;;;4129175;34;20473;-86
2020/12/31 04:54:06;;;;;;;4.78;1.23;;;13.80;99.90;;;;;;4117994;34;20490;-87
2020/12/31 04:56:36;;;;;;;17.05;15.82;;;13.70;99.90;;;;;;4123763;34;20072;-87
2020/12/31 04:59:07;;;;;;;24.42;22.60;;;13.70;99.90;;;;;;4125979;34;20087;-87
2020/12/31 05:01:35;;;;;;;4.43;1.33;;;13.80;99.90;;;;;;4124557;34;20140;-89
2020/12/31 05:04:04;;;;;;;3.08;1.10;;;13.90;99.90;;;;;;4131893;34;21045;-88
2020/12/31 05:06:35;;;;;;;10.50;1.45;;;13.90;99.90;;;;;;4134165;34;20060;-89
2020/12/31 05:09:19;;;;;;;2.03;0.68;;;14.00;99.90;;;;;;4136445;34;20419;-89
2020/12/31 05:11:53;;;;;;;5.57;1.25;;;13.90;99.90;;;;;;4134299;34;20053;-91
2020/12/31 05:14:36;;;;;;;6.93;6.03;;;14.00;99.90;;;;;;4117632;34;20104;-90
2020/12/31 05:17:15;;;;;;;17.10;15.65;;;14.00;99.90;;;;;;4107510;34;20156;-87
2020/12/31 05:19:44;;;;;;;4.90;4.03;;;14.00;99.90;;;;;;4130857;34;20446;-91
2020/12/31 05:22:17;;;;;;;3.58;0.90;;;13.90;99.90;;;;;;4120350;34;20617;-86
2020/12/31 05:24:50;;;;;;;3.17;1.08;;;13.90;99.90;;;;;;4131053;34;20143;-89
2020/12/31 05:27:19;;;;;;;5.20;1.17;;;13.90;99.90;;;;;;4121311;34;20093;-90
2020/12/31 05:30:01;;;;;;;5.75;1.98;;;13.90;99.90;;;;;;4118565;34;20151;-86
2020/12/31 05:32:31;;;;;;;3.28;1.00;;;13.90;99.90;;;;;;4130970;34;20167;-93
2020/12/31 05:35:00;;;;;;;7.90;1.90;;;14.00;99.90;;;;;;4111028;34;20115;-92
2020/12/31 05:37:30;;;;;;;12.98;12.13;;;14.00;99.90;;;;;;4120677;34;20182;-88
2020/12/31 05:40:18;;;;;;;13.05;12.15;;;14.00;99.90;;;;;;4116877;34;20143;-86
2020/12/31 05:42:46;;;;;;;11.75;10.85;;;14.00;99.90;;;;;;4122120;34;20535;-91
2020/12/31 05:45:18;;;;;;;1.90;0.73;;;14.00;99.90;;;;;;4127423;34;20525;-86
2020/12/31 05:47:51;;;;;;;5.32;0.77;;;14.00;99.90;;;;;;4110187;34;20158;-88
2020/12/31 05:50:29;;;;;;;1.37;0.52;;;13.90;99.90;;;;;;4120174;34;20026;-86
2020/12/31 05:52:57;;;;;;;4.65;0.70;;;14.00;99.90;;;;;;4120363;34;20449;-92
2020/12/31 05:55:26;;;;;;;8.90;5.50;;;14.00;99.90;;;;;;4123276;34;20067;-89
2020/12/31 05:57:55;;;;;;;12.05;5.62;;;14.00;99.90;;;;;;4133561;34;20161;-87
2020/12/31 06:00:29;;;;;;;4.68;4.07;;;14.00;99.90;;;;;;4117484;34;20097;-87
2020/12/31 06:03:01;;;;;;;7.50;3.97;;;13.90;99.90;;;;;;4120526;34;20588;-87
2020/12/31 06:05:29;;;;;;;10.35;3.87;;;14.00;99.90;;;;;;4120414;34;20518;-90
2020/12/31 06:07:59;;;;;;;6.35;4.30;;;14.00;99.90;;;;;;4112872;34;20065;-91
2020/12/31 06:10:30;;;;;;;3.20;2.20;;;14.00;99.90;;;;;;4123974;34;20108;-89
2020/12/31 06:13:02;;;;;;;1.83;0.60;;;14.00;99.90;;;;;;4130255;34;20106;-88
2020/12/31 06:15:32;;;;;;;5.47;0.75;;;14.10;99.90;;;;;;4122077;34;20087;-84
2020/12/31 06:18:03;;;;;;;3.58;0.80;;;14.20;99.90;;;;;;4118829;34;21575;-89
2020/12/31 06:20:38;;;;;;;5.65;1.40;;;14.20;99.90;;;;;;4130801;34;20105;-89
2020/12/31 06:23:12;;;;;;;2.25;1.00;;;14.10;99.90;;;;;;4122437;34;20078;-88
2020/12/31 06:25:43;;;;;;;3.03;1.20;;;14.10;99.90;;;;;;4123743;34;20124;-88
2020/12/31 06:28:19;;;;;;;3.17;1.00;;;14.10;99.90;;;;;;4134947;34;20134;-89
2020/12/31 06:30:52;;;;;;;4.07;1.42;;;14.10;99.90;;;;;;4136785;34;20441;-86
2020/12/31 06:33:33;;;;;;;6.57;1.17;;;14.10;99.90;;;;;;4131823;34;20075;-87
2020/12/31 06:36:03;;;;;;;2.92;1.10;;;14.10;99.90;;;;;;4119932;34;20135;-86
2020/12/31 06:38:40;;;;;;;5.90;1.30;;;14.10;99.90;;;;;;4133993;34;20131;-86
2020/12/31 06:41:38;;;;;;;4.70;0.88;;;14.10;99.90;;;;;;4141325;34;20459;-84
2020/12/31 06:44:11;;;;;;;6.03;1.00;;;14.10;99.90;;;;;;4133978;34;20132;-85
2020/12/31 06:46:58;;;;;;;5.65;0.90;;;14.10;99.90;;;;;;4126609;34;20618;-85
2020/12/31 06:49:52;;;;;;;2.75;1.87;;;14.20;99.90;;;;;;4124548;34;20126;-90
2020/12/31 06:52:23;;;;;;;6.82;0.93;;;14.20;99.90;;;;;;4107615;34;20526;-88
2020/12/31 06:54:51;;;;;;;4.00;1.00;;;14.20;99.90;;;;;;4133205;34;20136;-90
2020/12/31 06:57:36;;;;;;;6.50;1.35;;;14.20;99.90;;;;;;4136994;34;20162;-88
2020/12/31 07:00:07;;;;;;;3.47;1.20;;;14.30;99.90;;;;;;4138357;34;20064;-86
2020/12/31 07:02:45;;;;;;;4.28;0.93;;;14.30;99.90;;;;;;4134630;34;20139;-85
2020/12/31 07:05:23;;;;;;;4.45;0.95;;;14.30;99.90;;;;;;4120652;34;20525;-88
2020/12/31 07:07:51;;;;;;;6.20;1.48;;;14.30;99.90;;;;;;4136744;34;20075;-85
2020/12/31 07:10:19;;;;;;;4.20;1.12;;;14.30;99.90;;;;;;4140331;34;20061;-88
2020/12/31 07:12:47;;;;;;;6.25;2.58;;;14.30;99.90;;;;;;4137472;34;20045;-89
2020/12/31 07:15:17;;;;;;;5.95;1.27;;;14.30;99.90;;;;;;4125962;34;20175;-85
2020/12/31 07:17:50;;;;;;;3.95;0.95;;;14.30;99.90;;;;;;4138539;34;20107;-86
2020/12/31 07:20:18;;;;;;;6.72;0.80;;;14.30;99.90;;;;;;4135870;34;20095;-85
2020/12/31 07:22:48;;;;;;;14.40;1.60;;;14.40;99.90;;;;;;4119555;34;20639;-88
2020/12/31 07:25:18;;;;;;;5.57;0.93;;;14.40;99.90;;;;;;4137881;34;20103;-86
2020/12/31 07:27:48;;;;;;;4.07;2.15;;;14.50;99.90;;;;;;4133274;34;20563;-86
2020/12/31 07:30:18;;;;;;;9.23;3.35;;;14.50;99.90;;;;;;4127147;34;20184;-89
2020/12/31 07:33:04;;;;;;;4.53;3.37;;;14.70;99.90;;;;;;4138136;34;20100;-92
2020/12/31 07:35:41;;;;;;;4.00;2.67;;;14.60;99.90;;;;;;4138163;34;20160;-92
2020/12/31 07:38:11;;;;;;;5.85;0.82;;;14.60;99.90;;;;;;4119999;34;20108;-88
2020/12/31 07:40:45;;;;;;;6.22;1.65;;;14.50;99.90;;;;;;4118321;34;20153;-89
2020/12/31 07:43:23;;;;;;;3.70;0.60;;;14.50;99.90;;;;;;4122584;34;20057;-87
2020/12/31 07:45:54;;;;;;;3.15;0.90;;;14.50;99.90;;;;;;4130862;34;20187;-86
2020/12/31 07:48:24;;;;;;;8.43;1.25;;;14.60;99.90;;;;;;4131264;34;20536;-91
2020/12/31 07:50:57;;;;;;;7.25;0.95;;;14.60;99.90;;;;;;4131553;34;20138;-87
2020/12/31 07:53:29;;;;;;;4.72;2.92;;;14.60;99.90;;;;;;4133891;34;20116;-85
2020/12/31 07:55:58;;;;;;;4.53;0.82;;;14.60;99.90;;;;;;4135673;34;20094;-87
2020/12/31 07:58:29;;;;;;;5.12;1.62;;;14.60;99.90;;;;;;4119878;34;21001;-85
2020/12/31 08:01:05;;;;;;;6.22;1.05;;;14.60;99.90;;;;;;4135689;34;20441;-87
2020/12/31 08:03:34;;;;;;;7.65;1.52;;;14.60;99.90;;;;;;4117821;34;20181;-85
2020/12/31 08:06:10;;;;;;;10.25;0.90;;;14.60;99.90;;;;;;4132265;34;20546;-90
2020/12/31 08:08:41;;;;;;;5.03;1.08;;;14.50;99.90;;;;;;4127199;34;20595;-91
2020/12/31 08:11:10;;;;;;;17.60;1.85;;;14.60;99.90;;;;;;4138219;34;20748;-88
2020/12/31 08:13:39;;;;;;;8.07;1.48;;;14.70;99.90;;;;;;4144295;34;20120;-90
2020/12/31 08:16:08;;;;;;;6.20;1.20;;;14.70;99.90;;;;;;4143852;34;20164;-89
2020/12/31 08:18:37;;;;;;;4.32;1.30;;;14.70;99.90;;;;;;4146915;34;20088;-86
2020/12/31 08:21:07;;;;;;;5.37;1.48;;;14.70;99.90;;;;;;4117483;34;20076;-91
2020/12/31 08:23:41;;;;;;;3.83;1.12;;;14.80;99.90;;;;;;4139560;34;20095;-88
2020/12/31 08:26:13;;;;;;;3.07;0.90;;;14.80;99.90;;;;;;4141315;34;20052;-86
2020/12/31 08:28:44;;;;;;;5.85;0.88;;;14.90;99.90;;;;;;4148307;34;20058;-85
2020/12/31 08:31:15;;;;;;;4.40;1.15;;;14.90;99.90;;;;;;4146714;34;20144;-86
2020/12/31 08:33:44;;;;;;;8.07;1.02;;;15.00;99.90;;;;;;4148116;34;20104;-88
2020/12/31 08:36:23;;;;;;;5.40;1.10;;;15.20;99.90;;;;;;4147776;34;20060;-86
2020/12/31 08:38:54;;;;;;;1.90;1.30;;;15.30;99.90;;;;;;4131564;34;20108;-85
2020/12/31 08:41:25;;;;;;;7.57;4.15;;;15.30;99.90;;;;;;4132631;34;20442;-87
2020/12/31 08:43:53;;;;;;;5.50;3.37;;;15.40;99.90;;;;;;4143504;34;20056;-86
2020/12/31 08:46:22;;;;;;;5.72;1.08;;;15.50;99.90;;;;;;4140229;34;20108;-88
2020/12/31 08:48:55;;;;;;;4.15;1.10;;;15.50;99.90;;;;;;4134762;34;20099;-89
2020/12/31 08:51:29;;;;;;;7.78;2.45;;;15.50;99.90;;;;;;4119790;34;20409;-91
2020/12/31 08:54:01;;;;;;;8.38;5.22;;;15.70;99.90;;;;;;4126612;34;20143;-88
2020/12/31 08:56:31;;;;;;;9.25;2.28;;;15.80;99.90;;;;;;4137851;34;20813;-87
2020/12/31 08:59:10;;;;;;;6.40;1.52;;;15.90;99.90;;;;;;4144045;34;20088;-87
2020/12/31 09:01:43;;;;;;;13.98;12.93;;;18.90;99.90;;;;;;4128229;34;20168;-86
2020/12/31 09:04:20;;;;;;;6.70;2.15;;;;;;;;;;4135886;34;20211;-88
2020/12/31 09:06:52;;;;;;;2.08;1.90;;;19.30;99.90;;;;;;4139938;34;20060;-86
2020/12/31 09:09:26;;;;;;;10.15;1.42;;;18.70;99.90;;;;;;4141781;34;20121;-90
2020/12/31 09:12:05;;;;;;;5.30;2.10;;;;;;;;;;4142288;34;20091;-90
2020/12/31 09:14:35;;;;;;;5.15;1.73;;;;;;;;;;4145236;34;20061;-87
2020/12/31 09:17:25;;;;;;;4.50;1.48;;;;;;;;;;4140177;34;20085;-93
2020/12/31 09:19:56;;;;;;;1.77;1.42;;;;;;;;;;4143434;34;20077;-91
2020/12/31 09:22:26;;;;;;;3.28;1.65;;;;;;;;;;4129605;34;20114;-86
2020/12/31 09:24:55;;;;;;;6.18;2.45;;;;;;;;;;4135451;34;20110;-93
2020/12/31 09:27:24;;;;;;;3.37;1.55;;;;;;;;;;4131795;34;20585;-86
2020/12/31 09:30:02;;;;;;;3.78;1.08;;;;;;;;;;4136727;34;20057;-86
2020/12/31 09:32:31;;;;;;;4.43;1.12;;;;;;;;;;4125867;34;20095;-90
2020/12/31 09:35:02;;;;;;;9.73;3.00;;;;;;;;;;4124978;34;20132;-88
2020/12/31 09:37:47;;;;;;;6.18;4.50;;;20.30;99.90;;;;;;4126617;34;20095;-86
2020/12/31 09:40:16;;;;;;;4.70;4.05;;;20.20;99.90;;;;;;4125153;34;20521;-89
2020/12/31 09:42:46;;;;;;;7.22;6.62;;;;;;;;;;4127752;34;20075;-90
2020/12/31 09:45:15;;;;;;;4.10;2.45;;;22.30;83.40;;;;;;4121903;34;20089;-87
2020/12/31 09:47:44;;;;;;;7.37;4.55;;;22.70;82.70;;;;;;4122752;34;20271;-90
2020/12/31 09:50:12;;;;;;;4.32;3.92;;;22.40;83.10;;;;;;4141752;34;20118;-88
2020/12/31 09:52:41;;;;;;;5.37;3.60;;;23.70;79.40;;;;;;4125556;34;20057;-89
2020/12/31 09:55:26;;;;;;;3.40;3.20;;;23.70;78.70;;;;;;4123564;34;20128;-91
2020/12/31 09:57:54;;;;;;;6.32;3.50;;;23.70;77.10;;;;;;4127728;34;20112;-90
2020/12/31 10:00:24;;;;;;;3.67;3.10;;;25.00;76.60;;;;;;4143667;34;20113;-86
2020/12/31 10:02:53;;;;;;;4.40;3.20;;;25.40;71.50;;;;;;4127197;34;20104;-93
2020/12/31 10:05:21;;;;;;;3.42;2.90;;;24.30;69.50;;;;;;4130141;34;20057;-89
2020/12/31 10:07:49;;;;;;;5.07;3.33;;;25.10;70.10;;;;;;4132582;34;20131;-91
2020/12/31 10:10:18;;;;;;;5.28;2.65;;;25.60;69.70;;;;;;4133585;34;20128;-88
2020/12/31 10:12:46;;;;;;;2.65;2.47;;;25.40;66.20;;;;;;4128539;34;20109;-85
2020/12/31 10:15:14;;;;;;;5.25;2.65;;;25.70;65.10;;;;;;4123818;34;20497;-92
2020/12/31 10:17:42;;;;;;;2.85;1.05;;;26.70;63.80;;;;;;4138110;34;20068;-87
2020/12/31 10:20:10;;;;;;;3.90;0.55;;;24.10;64.90;;;;;;4125293;34;20061;-85
2020/12/31 10:22:38;;;;;;;3.75;3.22;;;21.20;70.70;;;;;;4125771;34;20084;-89
2020/12/31 10:25:07;;;;;;;3.30;3.20;;;21.50;76.70;;;;;;4143376;34;20632;-89
2020/12/31 10:27:35;;;;;;;3.47;3.28;;;23.50;69.50;;;;;;4128979;34;20131;-88
2020/12/31 10:30:05;;;;;;;4.72;3.72;;;;;;;;;;4123317;34;20104;-85
2020/12/31 10:32:33;;;;;;;1.25;0.80;;;24.10;65.00;;;;;;4134550;34;20052;-85
2020/12/31 10:35:02;;;;;;;5.05;3.47;;;22.00;71.70;;;;;;4135640;34;20081;-84
2020/12/31 10:37:30;;;;;;;3.70;3.40;;;24.60;71.90;;;;;;4138438;34;20068;-84
2020/12/31 10:39:58;;;;;;;3.60;3.40;;;23.80;70.20;;;;;;4108883;34;20148;-89
2020/12/31 10:42:27;;;;;;;2.78;2.37;;;25.50;66.40;;;;;;4140400;34;20526;-87
2020/12/31 10:44:56;;;;;;;1.48;0.57;;;25.20;66.30;;;;;;4123967;34;20056;-85
2020/12/31 10:47:24;;;;;;;3.37;1.33;;;22.20;73.60;;;;;;4137974;34;20127;-86
2020/12/31 10:49:52;;;;;;;1.67;0.77;;;20.00;82.60;;;;;;4143823;34;20087;-89
2020/12/31 10:52:20;;;;;;;3.20;0.80;;;19.80;87.90;;;;;;4143519;34;20049;-85
2020/12/31 10:54:48;;;;;;;2.58;0.90;;;19.20;88.60;;;;;;4126212;34;20198;-88
2020/12/31 10:57:19;;;;;;;4.50;4.15;;;19.00;90.20;;;;;;4110015;34;20500;-90
2020/12/31 10:59:47;;;;;;;4.05;3.75;;;;;;;;;;4142857;34;20134;-90
2020/12/31 11:02:17;;;;;;;4.80;3.20;;;;;;;;;;4130146;34;20095;-88
2020/12/31 11:04:45;;;;;;;3.25;3.05;;;25.90;99.90;;;;;;4144310;34;20526;-87
2020/12/31 11:07:16;;;;;;;4.12;2.50;;;25.50;65.30;;;;;;4128425;34;20060;-85
2020/12/31 11:09:44;;;;;;;2.12;2.03;;;25.70;65.10;;;;;;4146819;34;20106;-90
2020/12/31 11:12:12;;;;;;;2.92;2.72;;;25.80;64.50;;;;;;4146323;34;20144;-88
2020/12/31 11:14:40;;;;;;;1.92;0.70;;;24.90;66.40;;;;;;4144605;34;20867;-88
2020/12/31 11:17:09;;;;;;;3.08;1.17;;;22.80;69.60;;;;;;4132284;34;20057;-89
2020/12/31 11:19:36;;;;;;;3.05;0.90;;;20.10;99.90;;;;;;4147177;34;20078;-87
2020/12/31 11:22:07;;;;;;;4.35;3.45;;;20.00;80.70;;;;;;4128677;34;20068;-85
2020/12/31 11:24:35;;;;;;;2.55;1.10;;;21.40;81.10;;;;;;4121740;34;20135;-86
2020/12/31 11:27:03;;;;;;;3.47;2.75;;;22.00;75.20;;;;;;4144121;34;20099;-86
2020/12/31 11:29:31;;;;;;;2.70;2.50;;;23.30;72.50;;;;;;4141817;34;20118;-87
2020/12/31 11:32:01;;;;;;;3.17;2.00;;;23.60;68.60;;;;;;4148541;34;20065;-85
2020/12/31 11:34:29;;;;;;;3.17;2.12;;;23.80;68.20;;;;;;4143720;34;20116;-92
2020/12/31 11:36:57;;;;;;;2.12;1.90;;;23.80;64.50;;;;;;4134608;34;20103;-90
2020/12/31 11:39:26;;;;;;;3.95;2.08;;;24.00;64.90;;;;;;4137899;34;20232;-86
2020/12/31 11:42:00;;;;;;;2.15;1.80;;;23.50;63.10;;;;;;4135306;34;20068;-87
2020/12/31 11:44:28;;;;;;;2.25;2.05;;;24.50;62.90;;;;;;4145892;34;20060;-90
2020/12/31 11:46:59;;;;;;;2.95;1.80;;;24.20;61.00;;;;;;4133871;34;20798;-86
2020/12/31 11:49:27;;;;;;;1.90;1.80;;;23.90;62.90;;;;;;4147171;34;20102;-85
2020/12/31 11:51:58;;;;;;;2.67;1.70;;;23.20;63.40;;;;;;4143361;34;20166;-89
2020/12/31 11:54:27;;;;;;;1.87;1.85;;;24.70;61.10;;;;;;4147090;34;20123;-86
2020/12/31 11:56:55;;;;;;;3.55;1.90;;;25.40;59.40;;;;;;4143943;34;20056;-86
2020/12/31 11:59:23;;;;;;;2.35;2.15;;;24.30;57.70;;;;;;4140327;34;20053;-92
2020/12/31 12:01:52;;;;;;;0.80;0.75;;;25.10;58.00;;;;;;4133783;34;20162;-86
2020/12/31 12:04:21;;;;;;;5.35;0.80;;;24.40;57.80;;;;;;4153704;34;20064;-93
2020/12/31 12:06:52;;;;;;;1.05;0.50;;;22.30;65.70;;;;;;4133794;34;20130;-85
2020/12/31 12:09:21;;;;;;;2.00;0.90;;;;;;;;;;4127330;34;20125;-92
2020/12/31 12:11:50;;;;;;;2.90;1.25;;;20.80;72.70;;;;;;4146740;34;20147;-90
2020/12/31 12:14:18;;;;;;;1.30;1.20;;;22.00;70.50;;;;;;4122879;34;20095;-91
2020/12/31 12:16:50;;;;;;;2.33;1.73;;;22.00;68.30;;;;;;4146795;34;20140;-92
2020/12/31 12:19:18;;;;;;;2.67;0.62;;;23.30;63.80;;;;;;4135035;34;20060;-90
2020/12/31 12:21:47;;;;;;;1.00;1.00;;;22.50;65.00;;;;;;4133603;34;20080;-88
2020/12/31 12:24:15;;;;;;;2.20;1.52;;;23.10;65.10;;;;;;4126082;34;20061;-86
2020/12/31 12:26:43;;;;;;;0.93;0.93;;;24.30;60.60;;;;;;4139087;34;20442;-87
2020/12/31 12:29:11;;;;;;;1.40;1.40;;;23.70;59.40;;;;;;4144930;34;20061;-86
2020/12/31 12:31:39;;;;;;;2.00;0.75;;;23.20;60.70;;;;;;4152389;34;20808;-90
2020/12/31 12:34:07;;;;;;;2.28;0.60;;;23.50;60.20;;;;;;4144581;34;20080;-87
2020/12/31 12:36:36;;;;;;;1.75;1.23;;;23.50;59.70;;;;;;4139886;34;20091;-87
2020/12/31 12:39:06;;;;;;;3.37;0.82;;;23.00;61.30;;;;;;4139512;34;20100;-89
2020/12/31 12:41:34;;;;;;;1.95;0.80;;;22.40;61.90;;;;;;4119887;34;20065;-88
2020/12/31 12:44:03;;;;;;;0.88;0.80;;;21.70;65.20;;;;;;4138120;34;20112;-88
2020/12/31 12:46:31;;;;;;;0.68;0.50;;;21.10;66.60;;;;;;4119238;34;20374;-85
2020/12/31 12:49:01;;;;;;;0.90;0.50;;;21.00;70.60;;;;;;4129505;34;20224;-87
2020/12/31 12:51:31;;;;;;;2.15;0.70;;;20.40;73.20;;;;;;4143805;34;20148;-87
2020/12/31 12:53:59;;;;;;;0.47;0.47;;;20.40;73.70;;;;;;4142990;34;20068;-86
2020/12/31 12:56:27;;;;;;;1.20;0.60;;;20.30;74.70;;;;;;4132166;34;20157;-91
2020/12/31 12:58:57;;;;;;;0.68;0.50;;;20.40;74.50;;;;;;4134222;34;22098;-90
2020/12/31 13:01:25;;;;;;;1.48;0.50;;;20.10;73.60;;;;;;4131463;34;20124;-85
2020/12/31 13:03:53;;;;;;;1.10;0.50;;;19.90;73.90;;;;;;4113802;34;20119;-87
2020/12/31 13:06:21;;;;;;;0.60;0.60;;;20.10;74.60;;;;;;4133056;34;20242;-86